createdAt,value
2018-05-25T00:00:50.270Z,8.20
2018-05-25T00:01:56.672Z,8.30
2018-05-25T00:03:03.477Z,7.70
2018-05-25T00:04:10.342Z,8.20
2018-05-25T00:05:17.142Z,8.10
2018-05-25T00:06:23.922Z,8.40
2018-05-25T00:07:30.726Z,7.80
2018-05-25T00:08:37.531Z,7.80
2018-05-25T00:09:44.309Z,8.00
2018-05-25T00:10:51.395Z,7.80
2018-05-25T00:11:58.256Z,8.20
2018-05-25T00:13:05.027Z,7.70
2018-05-25T00:14:11.855Z,7.80
2018-05-25T00:15:18.746Z,7.60
2018-05-25T00:16:25.515Z,7.70
2018-05-25T00:17:32.409Z,7.00
2018-05-25T00:18:39.270Z,7.80
2018-05-25T00:19:46.027Z,7.40
2018-05-25T00:20:52.822Z,7.50
2018-05-25T00:21:59.698Z,7.10
2018-05-25T00:23:06.990Z,7.30
2018-05-25T00:24:13.234Z,7.50
2018-05-25T00:25:20.050Z,8.10
2018-05-25T00:26:26.806Z,7.00
2018-05-25T00:27:33.633Z,7.60
2018-05-25T00:28:40.393Z,8.30
2018-05-25T00:29:47.134Z,7.70
2018-05-25T00:30:54.257Z,8.10
2018-05-25T00:32:01.080Z,8.20
2018-05-25T00:33:07.867Z,7.80
2018-05-25T00:34:14.614Z,8.70
2018-05-25T00:35:21.467Z,7.30
2018-05-25T00:36:28.205Z,7.90
2018-05-25T00:37:35.201Z,8.10
2018-05-25T00:38:42.053Z,8.60
2018-05-25T00:39:48.947Z,7.80
2018-05-25T00:40:55.732Z,8.60
2018-05-25T00:42:02.508Z,8.30
2018-05-25T00:43:09.314Z,8.30
2018-05-25T00:44:16.131Z,8.40
2018-05-25T00:45:22.900Z,8.60
2018-05-25T00:46:29.698Z,8.20
2018-05-25T00:47:36.446Z,7.90
2018-05-25T00:48:43.182Z,7.90
2018-05-25T00:49:49.959Z,7.60
2018-05-25T00:50:56.742Z,8.00
2018-05-25T00:52:03.801Z,8.40
2018-05-25T00:53:10.549Z,7.90
2018-05-25T00:54:17.331Z,8.60
2018-05-25T00:55:24.078Z,7.60
2018-05-25T00:56:30.871Z,7.30
2018-05-25T00:57:37.733Z,7.60
2018-05-25T00:58:44.603Z,6.70
2018-05-25T00:59:51.373Z,7.30
2018-05-25T01:00:58.153Z,7.20
2018-05-25T01:02:04.983Z,6.80
2018-05-25T01:03:11.750Z,7.30
2018-05-25T01:04:18.526Z,6.50
2018-05-25T01:05:25.358Z,7.50
2018-05-25T01:06:32.135Z,7.00
2018-05-25T01:07:38.968Z,6.30
2018-05-25T01:08:45.749Z,6.20
2018-05-25T01:09:52.515Z,6.20
2018-05-25T01:10:59.325Z,6.60
2018-05-25T01:12:06.146Z,6.40
2018-05-25T01:13:12.938Z,6.20
2018-05-25T01:14:19.778Z,6.10
2018-05-25T01:15:26.543Z,5.60
2018-05-25T01:16:33.353Z,6.10
2018-05-25T01:17:40.114Z,5.70
2018-05-25T01:18:46.893Z,5.80
2018-05-25T01:19:53.719Z,6.40
2018-05-25T01:21:00.503Z,5.90
2018-05-25T01:22:07.514Z,5.90
2018-05-25T01:23:14.390Z,6.10
2018-05-25T01:24:21.125Z,5.70
2018-05-25T01:25:27.938Z,6.60
2018-05-25T01:26:34.693Z,6.00
2018-05-25T01:27:41.426Z,5.90
2018-05-25T01:28:48.187Z,6.10
2018-05-25T01:29:55.246Z,6.60
2018-05-25T01:31:01.991Z,6.50
2018-05-25T01:32:08.799Z,6.60
2018-05-25T01:33:15.557Z,6.60
2018-05-25T01:34:22.374Z,6.40
2018-05-25T01:35:29.144Z,6.50
2018-05-25T01:36:35.927Z,6.70
2018-05-25T01:37:42.726Z,6.60
2018-05-25T01:38:49.473Z,6.60
2018-05-25T01:39:56.277Z,6.40
2018-05-25T01:41:03.030Z,7.10
2018-05-25T01:42:09.806Z,6.90
2018-05-25T01:43:16.643Z,6.80
2018-05-25T01:44:23.361Z,7.20
2018-05-25T01:45:30.190Z,7.10
2018-05-25T01:46:37.038Z,7.10
2018-05-25T01:47:43.794Z,6.80
2018-05-25T01:48:50.817Z,7.80
2018-05-25T01:49:57.574Z,7.80
2018-05-25T01:51:04.350Z,7.40
2018-05-25T01:52:11.161Z,7.30
2018-05-25T01:53:17.954Z,7.00
2018-05-25T01:54:25.061Z,7.30
2018-05-25T01:55:31.775Z,6.10
2018-05-25T01:56:38.670Z,6.60
2018-05-25T01:57:45.491Z,6.30
2018-05-25T01:58:52.222Z,5.90
2018-05-25T01:59:59.146Z,6.30
2018-05-25T02:01:05.910Z,5.80
2018-05-25T02:02:12.656Z,6.00
2018-05-25T02:03:19.380Z,5.30
2018-05-25T02:04:26.154Z,5.80
2018-05-25T02:05:32.890Z,5.60
2018-05-25T02:06:39.772Z,5.70
2018-05-25T02:07:46.516Z,5.90
2018-05-25T02:08:53.270Z,6.20
2018-05-25T02:10:00.011Z,6.00
2018-05-25T02:11:06.811Z,5.90
2018-05-25T02:12:13.561Z,5.40
2018-05-25T02:13:20.397Z,6.00
2018-05-25T02:14:27.194Z,5.10
2018-05-25T02:15:33.958Z,5.90
2018-05-25T02:16:40.739Z,5.60
2018-05-25T02:17:47.531Z,5.70
2018-05-25T02:18:54.253Z,5.80
2018-05-25T02:20:01.102Z,5.60
2018-05-25T02:21:08.010Z,5.80
2018-05-25T02:22:14.743Z,5.10
2018-05-25T02:23:21.496Z,5.70
2018-05-25T02:24:28.313Z,5.50
2018-05-25T02:25:35.092Z,5.50
2018-05-25T02:26:41.857Z,5.00
2018-05-25T02:27:48.694Z,5.40
2018-05-25T02:28:55.435Z,5.70
2018-05-25T02:30:02.210Z,5.60
2018-05-25T02:31:09.179Z,5.50
2018-05-25T02:32:15.905Z,5.90
2018-05-25T02:33:22.650Z,5.50
2018-05-25T02:34:29.434Z,5.60
2018-05-25T02:35:36.535Z,6.00
2018-05-25T02:36:43.357Z,5.30
2018-05-25T02:37:50.101Z,5.70
2018-05-25T02:38:56.913Z,5.50
2018-05-25T02:40:03.690Z,6.00
2018-05-25T02:41:10.707Z,5.50
2018-05-25T02:42:17.728Z,5.50
2018-05-25T02:43:24.470Z,5.20
2018-05-25T02:44:31.250Z,4.90
2018-05-25T02:45:38.007Z,5.60
2018-05-25T02:46:44.802Z,5.00
2018-05-25T02:47:51.656Z,5.50
2018-05-25T02:48:58.433Z,5.30
2018-05-25T02:50:05.186Z,6.10
2018-05-25T02:51:11.975Z,5.80
2018-05-25T02:52:18.716Z,5.50
2018-05-25T02:53:25.521Z,5.20
2018-05-25T02:54:32.393Z,5.60
2018-05-25T02:55:39.144Z,5.70
2018-05-25T02:56:45.925Z,5.20
2018-05-25T02:57:52.662Z,5.80
2018-05-25T02:58:59.461Z,5.30
2018-05-25T03:00:06.285Z,5.50
2018-05-25T03:01:13.134Z,5.30
2018-05-25T03:02:19.920Z,5.70
2018-05-25T03:03:26.662Z,5.70
2018-05-25T03:04:33.415Z,5.70
2018-05-25T03:05:40.213Z,6.10
2018-05-25T03:06:47.065Z,5.00
2018-05-25T03:07:53.848Z,5.30
2018-05-25T03:09:00.612Z,5.30
2018-05-25T03:10:07.675Z,4.80
2018-05-25T03:11:14.454Z,4.70
2018-05-25T03:12:21.223Z,5.50
2018-05-25T03:13:27.993Z,5.10
2018-05-25T03:14:34.725Z,5.10
2018-05-25T03:15:41.473Z,5.10
2018-05-25T03:16:48.273Z,5.00
2018-05-25T03:17:55.151Z,5.20
2018-05-25T03:19:02.058Z,5.20
2018-05-25T03:20:08.923Z,5.40
2018-05-25T03:21:15.666Z,6.00
2018-05-25T03:22:22.761Z,5.60
2018-05-25T03:23:29.523Z,6.10
2018-05-25T03:24:36.283Z,5.80
2018-05-25T03:25:43.312Z,5.60
2018-05-25T03:26:50.120Z,5.10
2018-05-25T03:27:56.905Z,5.00
2018-05-25T03:29:03.687Z,5.90
2018-05-25T03:30:10.439Z,5.70
2018-05-25T03:31:17.295Z,6.40
2018-05-25T03:32:24.046Z,6.50
2018-05-25T03:33:30.817Z,6.00
2018-05-25T03:34:37.601Z,6.40
2018-05-25T03:35:44.442Z,6.50
2018-05-25T03:36:51.242Z,6.30
2018-05-25T03:37:58.202Z,7.00
2018-05-25T03:39:04.998Z,6.60
2018-05-25T03:40:11.799Z,7.00
2018-05-25T03:41:18.642Z,6.70
2018-05-25T03:42:25.554Z,6.70
2018-05-25T03:43:32.423Z,7.00
2018-05-25T03:44:39.207Z,7.70
2018-05-25T03:45:46.206Z,6.90
2018-05-25T03:46:53.071Z,7.30
2018-05-25T03:47:59.941Z,7.80
2018-05-25T03:49:06.786Z,7.00
2018-05-25T03:50:13.534Z,7.30
2018-05-25T03:51:20.357Z,6.70
2018-05-25T03:52:27.136Z,7.20
2018-05-25T03:53:33.917Z,7.20
2018-05-25T03:54:40.822Z,7.30
2018-05-25T03:55:47.581Z,6.70
2018-05-25T03:56:54.370Z,7.10
2018-05-25T03:58:01.131Z,7.10
2018-05-25T03:59:07.900Z,7.80
2018-05-25T04:00:14.874Z,7.40
2018-05-25T04:01:26.454Z,7.40
2018-05-25T04:02:33.581Z,7.10
2018-05-25T04:03:40.334Z,7.40
2018-05-25T04:04:47.114Z,7.10
2018-05-25T04:05:54.154Z,7.90
2018-05-25T04:07:00.931Z,7.30
2018-05-25T04:08:07.804Z,7.50
2018-05-25T04:09:14.623Z,7.40
2018-05-25T04:10:21.382Z,8.10
2018-05-25T04:11:28.182Z,7.70
2018-05-25T04:12:35.031Z,7.80
2018-05-25T04:13:41.800Z,7.50
2018-05-25T04:14:48.579Z,7.80
2018-05-25T04:15:55.371Z,8.10
2018-05-25T04:17:02.159Z,7.50
2018-05-25T04:18:08.993Z,7.30
2018-05-25T04:19:15.771Z,8.30
2018-05-25T04:20:22.525Z,9.00
2018-05-25T04:21:29.354Z,8.10
2018-05-25T04:22:36.413Z,8.60
2018-05-25T04:23:43.211Z,8.80
2018-05-25T04:24:49.966Z,7.70
2018-05-25T04:25:56.747Z,8.40
2018-05-25T04:27:03.504Z,8.10
2018-05-25T04:28:10.249Z,9.30
2018-05-25T04:29:17.010Z,8.90
2018-05-25T04:30:23.838Z,8.90
2018-05-25T04:31:30.623Z,9.40
2018-05-25T04:32:37.390Z,8.70
2018-05-25T04:33:44.286Z,9.80
2018-05-25T04:34:51.039Z,8.80
2018-05-25T04:35:57.787Z,9.80
2018-05-25T04:37:04.568Z,9.10
2018-05-25T04:38:11.299Z,9.50
2018-05-25T04:39:18.062Z,9.50
2018-05-25T04:40:24.879Z,9.90
2018-05-25T04:41:31.651Z,9.70
2018-05-25T04:42:38.638Z,9.80
2018-05-25T04:43:45.466Z,9.70
2018-05-25T04:44:52.672Z,8.90
2018-05-25T04:45:59.466Z,9.70
2018-05-25T04:47:06.226Z,9.30
2018-05-25T04:48:13.018Z,9.00
2018-05-25T04:49:19.810Z,9.50
2018-05-25T04:50:26.713Z,9.20
2018-05-25T04:51:33.571Z,9.30
2018-05-25T04:52:40.372Z,10.10
2018-05-25T04:53:47.114Z,9.70
2018-05-25T04:54:53.909Z,9.10
2018-05-25T04:56:00.664Z,9.90
2018-05-25T04:57:07.495Z,10.00
2018-05-25T04:58:14.258Z,9.50
2018-05-25T04:59:21.259Z,10.60
2018-05-25T05:00:28.009Z,10.50
2018-05-25T05:01:34.756Z,10.80
2018-05-25T05:02:41.555Z,11.20
2018-05-25T05:03:48.555Z,12.10
2018-05-25T05:04:55.090Z,11.30
2018-05-25T05:06:02.168Z,11.30
2018-05-25T05:07:08.956Z,12.00
2018-05-25T05:08:15.678Z,12.20
2018-05-25T05:09:22.463Z,12.90
2018-05-25T05:10:29.287Z,11.80
2018-05-25T05:11:36.189Z,11.90
2018-05-25T05:12:42.970Z,12.00
2018-05-25T05:13:49.765Z,12.10
2018-05-25T05:14:56.569Z,12.90
2018-05-25T05:16:03.460Z,12.80
2018-05-25T05:17:10.341Z,11.70
2018-05-25T05:18:17.102Z,11.80
2018-05-25T05:19:23.842Z,13.00
2018-05-25T05:20:30.678Z,13.10
2018-05-25T05:21:37.554Z,14.60
2018-05-25T05:22:44.552Z,14.20
2018-05-25T05:23:51.391Z,13.80
2018-05-25T05:24:58.151Z,13.00
2018-05-25T05:26:05.038Z,12.90
2018-05-25T05:27:11.818Z,14.20
2018-05-25T05:28:18.543Z,14.30
2018-05-25T05:29:25.562Z,14.30
2018-05-25T05:30:32.376Z,15.50
2018-05-25T05:31:39.146Z,19.90
2018-05-25T05:32:46.212Z,23.10
2018-05-25T05:33:53.006Z,21.60
2018-05-25T05:34:59.810Z,17.10
2018-05-25T05:36:06.826Z,15.00
2018-05-25T05:37:13.886Z,13.70
2018-05-25T05:38:20.715Z,14.60
2018-05-25T05:39:27.620Z,14.40
2018-05-25T05:40:34.487Z,15.50
2018-05-25T05:41:41.250Z,15.20
2018-05-25T05:42:48.087Z,16.70
2018-05-25T05:43:54.862Z,17.10
2018-05-25T05:45:01.623Z,16.80
2018-05-25T05:46:08.855Z,17.00
2018-05-25T05:47:15.756Z,13.30
2018-05-25T05:48:22.540Z,14.70
2018-05-25T05:49:29.294Z,16.10
2018-05-25T05:50:36.122Z,15.90
2018-05-25T05:51:42.908Z,16.10
2018-05-25T05:52:49.942Z,16.20
2018-05-25T05:53:56.812Z,13.70
2018-05-25T05:55:03.642Z,13.80
2018-05-25T05:56:10.622Z,13.60
2018-05-25T05:57:17.434Z,12.90
2018-05-25T05:58:24.162Z,14.00
2018-05-25T05:59:30.926Z,14.20
2018-05-25T06:00:37.689Z,13.80
2018-05-25T06:01:44.435Z,14.80
2018-05-25T06:02:51.239Z,14.70
2018-05-25T06:03:58.377Z,13.60
2018-05-25T06:05:05.155Z,15.00
2018-05-25T06:06:11.980Z,14.60
2018-05-25T06:07:18.850Z,15.70
2018-05-25T06:08:25.862Z,15.00
2018-05-25T06:09:32.609Z,15.50
2018-05-25T06:10:39.410Z,15.30
2018-05-25T06:11:46.225Z,15.30
2018-05-25T06:12:53.144Z,15.30
2018-05-25T06:14:00.015Z,15.10
2018-05-25T06:15:07.035Z,14.60
2018-05-25T06:16:13.983Z,15.00
2018-05-25T06:17:20.992Z,14.40
2018-05-25T06:18:27.848Z,14.30
2018-05-25T06:19:34.654Z,14.90
2018-05-25T06:20:41.497Z,14.60
2018-05-25T06:21:48.475Z,15.00
2018-05-25T06:22:55.993Z,15.10
2018-05-25T06:24:02.447Z,14.50
2018-05-25T06:25:09.403Z,14.00
2018-05-25T06:26:16.309Z,13.30
2018-05-25T06:27:23.146Z,14.90
2018-05-25T06:28:29.910Z,14.40
2018-05-25T06:29:37.014Z,14.40
2018-05-25T06:30:43.986Z,14.60
2018-05-25T06:31:50.746Z,13.90
2018-05-25T06:32:57.607Z,15.90
2018-05-25T06:34:04.375Z,15.70
2018-05-25T06:35:11.152Z,16.70
2018-05-25T06:36:18.011Z,17.20
2018-05-25T06:37:24.860Z,16.70
2018-05-25T06:38:31.650Z,16.70
2018-05-25T06:39:38.458Z,17.20
2018-05-25T06:40:45.345Z,15.00
2018-05-25T06:41:52.291Z,14.80
2018-05-25T06:42:59.417Z,14.60
2018-05-25T06:44:06.204Z,14.80
2018-05-25T06:45:12.985Z,14.30
2018-05-25T06:46:19.810Z,13.90
2018-05-25T06:47:26.619Z,15.30
2018-05-25T06:48:33.423Z,14.50
2018-05-25T06:49:40.210Z,15.50
2018-05-25T06:50:46.996Z,14.20
2018-05-25T06:51:53.912Z,15.10
2018-05-25T06:53:01.047Z,15.00
2018-05-25T06:54:07.991Z,15.30
2018-05-25T06:55:14.510Z,15.40
2018-05-25T06:56:21.421Z,15.60
2018-05-25T06:57:28.386Z,15.70
2018-05-25T06:58:35.250Z,14.90
2018-05-25T06:59:42.022Z,15.30
2018-05-25T07:00:48.834Z,15.70
2018-05-25T07:01:56.654Z,15.40
2018-05-25T07:03:02.472Z,15.70
2018-05-25T07:04:09.267Z,16.60
2018-05-25T07:05:16.071Z,16.40
2018-05-25T07:06:22.946Z,15.50
2018-05-25T07:07:29.742Z,15.90
2018-05-25T07:08:36.506Z,16.70
2018-05-25T07:09:43.262Z,15.00
2018-05-25T07:10:50.021Z,16.40
2018-05-25T07:11:57.090Z,16.40
2018-05-25T07:13:03.911Z,15.50
2018-05-25T07:14:10.758Z,16.00
2018-05-25T07:15:17.511Z,17.10
2018-05-25T07:16:24.302Z,16.90
2018-05-25T07:17:31.122Z,18.10
2018-05-25T07:18:37.882Z,16.70
2018-05-25T07:19:44.667Z,17.00
2018-05-25T07:20:51.454Z,16.70
2018-05-25T07:21:58.235Z,16.40
2018-05-25T07:23:05.030Z,16.70
2018-05-25T07:24:11.810Z,17.50
2018-05-25T07:25:18.578Z,17.10
2018-05-25T07:26:25.395Z,16.30
2018-05-25T07:27:32.226Z,16.60
2018-05-25T07:28:39.006Z,17.30
2018-05-25T07:29:45.766Z,16.60
2018-05-25T07:30:52.841Z,16.20
2018-05-25T07:31:59.677Z,16.60
2018-05-25T07:33:06.494Z,16.50
2018-05-25T07:34:13.354Z,16.30
2018-05-25T07:35:20.169Z,16.10
2018-05-25T07:36:26.925Z,17.30
2018-05-25T07:37:33.791Z,17.40
2018-05-25T07:38:40.594Z,18.20
2018-05-25T07:39:47.562Z,18.70
2018-05-25T07:40:54.330Z,18.60
2018-05-25T07:42:01.120Z,20.70
2018-05-25T07:43:07.923Z,18.70
2018-05-25T07:44:14.688Z,19.20
2018-05-25T07:45:21.477Z,19.40
2018-05-25T07:46:28.308Z,19.20
2018-05-25T07:47:35.178Z,19.50
2018-05-25T07:48:42.044Z,19.50
2018-05-25T07:49:48.892Z,19.10
2018-05-25T07:50:55.782Z,18.70
2018-05-25T07:52:02.575Z,18.90
2018-05-25T07:53:09.387Z,17.70
2018-05-25T07:54:16.239Z,17.90
2018-05-25T07:55:22.998Z,18.10
2018-05-25T07:56:29.879Z,17.80
2018-05-25T07:57:36.811Z,17.50
2018-05-25T07:58:43.641Z,19.00
2018-05-25T07:59:50.480Z,19.30
2018-05-25T08:00:57.394Z,20.10
2018-05-25T08:02:04.220Z,17.20
2018-05-25T08:03:11.044Z,19.70
2018-05-25T08:04:17.840Z,18.60
2018-05-25T08:05:24.600Z,18.80
2018-05-25T08:06:31.342Z,18.20
2018-05-25T08:07:38.139Z,18.20
2018-05-25T08:08:45.179Z,19.60
2018-05-25T08:09:51.966Z,19.30
2018-05-25T08:10:58.719Z,19.60
2018-05-25T08:12:05.481Z,20.30
2018-05-25T08:13:12.489Z,20.20
2018-05-25T08:14:19.424Z,19.60
2018-05-25T08:15:26.250Z,18.60
2018-05-25T08:16:33.135Z,18.50
2018-05-25T08:17:40.156Z,19.10
2018-05-25T08:18:47.007Z,18.70
2018-05-25T08:19:53.779Z,19.30
2018-05-25T08:21:00.725Z,19.30
2018-05-25T08:22:07.897Z,18.90
2018-05-25T08:23:14.231Z,19.40
2018-05-25T08:24:21.037Z,19.40
2018-05-25T08:25:28.123Z,18.40
2018-05-25T08:26:34.955Z,19.00
2018-05-25T08:27:41.787Z,20.40
2018-05-25T08:28:48.917Z,20.60
2018-05-25T08:29:55.698Z,18.60
2018-05-25T08:31:02.562Z,17.90
2018-05-25T08:32:09.429Z,18.90
2018-05-25T08:33:16.295Z,18.90
2018-05-25T08:34:23.170Z,18.70
2018-05-25T08:35:30.360Z,19.50
2018-05-25T08:36:37.017Z,18.60
2018-05-25T08:37:43.983Z,18.90
2018-05-25T08:38:50.778Z,19.10
2018-05-25T08:39:57.604Z,19.60
2018-05-25T08:41:04.406Z,19.20
2018-05-25T08:42:11.466Z,18.70
2018-05-25T08:43:18.300Z,17.50
2018-05-25T08:44:25.251Z,18.70
2018-05-25T08:45:32.160Z,20.00
2018-05-25T08:46:39.135Z,19.60
2018-05-25T08:47:45.975Z,20.40
2018-05-25T08:48:52.847Z,19.80
2018-05-25T08:49:59.981Z,20.30
2018-05-25T08:51:06.951Z,19.50
2018-05-25T08:52:13.842Z,20.30
2018-05-25T08:53:20.730Z,20.30
2018-05-25T08:54:27.562Z,26.60
2018-05-25T08:55:34.395Z,30.50
2018-05-25T08:56:41.463Z,34.50
2018-05-25T08:57:48.239Z,25.90
2018-05-25T08:58:55.015Z,19.20
2018-05-25T09:00:01.843Z,21.20
2018-05-25T09:01:09.006Z,19.60
2018-05-25T09:02:15.896Z,19.30
2018-05-25T09:03:22.718Z,18.70
2018-05-25T09:04:29.516Z,19.10
2018-05-25T09:05:36.371Z,18.10
2018-05-25T09:06:43.407Z,19.60
2018-05-25T09:07:50.236Z,19.70
2018-05-25T09:08:57.031Z,20.60
2018-05-25T09:10:03.806Z,19.70
2018-05-25T09:11:10.615Z,20.30
2018-05-25T09:12:17.420Z,20.20
2018-05-25T09:13:24.234Z,20.60
2018-05-25T09:14:31.032Z,21.00
2018-05-25T09:15:37.994Z,20.90
2018-05-25T09:16:44.812Z,21.20
2018-05-25T09:17:51.648Z,21.00
2018-05-25T09:18:58.469Z,20.40
2018-05-25T09:20:05.274Z,21.30
2018-05-25T09:21:12.074Z,20.30
2018-05-25T09:22:18.868Z,20.20
2018-05-25T09:23:25.647Z,20.10
2018-05-25T09:24:32.419Z,20.00
2018-05-25T09:25:39.303Z,21.30
2018-05-25T09:26:46.154Z,21.00
2018-05-25T09:27:52.983Z,20.90
2018-05-25T09:28:59.782Z,21.80
2018-05-25T09:30:06.600Z,21.20
2018-05-25T09:31:13.386Z,21.00
2018-05-25T09:32:20.298Z,21.00
2018-05-25T09:33:27.167Z,21.60
2018-05-25T09:34:34.079Z,21.10
2018-05-25T09:35:40.999Z,21.70
2018-05-25T09:36:47.868Z,21.10
2018-05-25T09:37:54.723Z,22.30
2018-05-25T09:39:01.598Z,23.80
2018-05-25T09:40:08.710Z,21.80
2018-05-25T09:41:15.593Z,21.80
2018-05-25T09:42:22.476Z,23.90
2018-05-25T09:43:29.295Z,23.00
2018-05-25T09:44:36.236Z,23.20
2018-05-25T09:45:43.162Z,24.50
2018-05-25T09:46:50.114Z,23.10
2018-05-25T09:47:57.097Z,23.00
2018-05-25T09:49:04.025Z,23.30
2018-05-25T09:50:10.928Z,22.70
2018-05-25T09:51:17.804Z,22.90
2018-05-25T09:52:25.986Z,21.80
2018-05-25T09:53:31.830Z,23.20
2018-05-25T09:54:38.690Z,22.60
2018-05-25T09:55:45.504Z,22.10
2018-05-25T09:56:52.283Z,23.10
2018-05-25T09:57:59.262Z,22.50
2018-05-25T09:59:06.218Z,24.10
2018-05-25T10:00:13.079Z,22.70
2018-05-25T10:01:20.146Z,23.30
2018-05-25T10:02:27.071Z,22.40
2018-05-25T10:03:33.902Z,22.90
2018-05-25T10:04:40.688Z,23.40
2018-05-25T10:05:47.504Z,23.70
2018-05-25T10:06:54.304Z,22.20
2018-05-25T10:08:01.107Z,22.90
2018-05-25T10:09:07.906Z,24.50
2018-05-25T10:10:14.686Z,23.50
2018-05-25T10:11:21.443Z,23.40
2018-05-25T10:12:28.599Z,25.80
2018-05-25T10:13:35.387Z,24.90
2018-05-25T10:14:42.287Z,24.90
2018-05-25T10:15:49.087Z,24.00
2018-05-25T10:16:55.918Z,25.70
2018-05-25T10:18:02.719Z,25.60
2018-05-25T10:19:09.506Z,24.80
2018-05-25T10:20:16.305Z,24.70
2018-05-25T10:21:23.098Z,26.80
2018-05-25T10:22:29.858Z,26.00
2018-05-25T10:23:36.689Z,25.40
2018-05-25T10:24:43.502Z,27.00
2018-05-25T10:25:50.248Z,26.30
2018-05-25T10:26:57.238Z,24.80
2018-05-25T10:28:03.983Z,24.70
2018-05-25T10:29:10.833Z,26.80
2018-05-25T10:30:17.660Z,28.00
2018-05-25T10:31:24.410Z,27.00
2018-05-25T10:32:31.211Z,25.10
2018-05-25T10:33:38.046Z,26.10
2018-05-25T10:34:44.794Z,26.40
2018-05-25T10:35:51.891Z,24.90
2018-05-25T10:36:58.652Z,25.80
2018-05-25T10:38:05.637Z,25.60
2018-05-25T10:39:12.848Z,26.30
2018-05-25T10:40:19.161Z,25.40
2018-05-25T10:41:26.150Z,26.40
2018-05-25T10:42:32.964Z,27.30
2018-05-25T10:43:39.789Z,26.30
2018-05-25T10:44:46.583Z,26.00
2018-05-25T10:45:53.368Z,25.50
2018-05-25T10:47:00.303Z,25.20
2018-05-25T10:48:07.392Z,26.30
2018-05-25T10:49:14.395Z,25.60
2018-05-25T10:50:21.421Z,27.00
2018-05-25T10:51:28.320Z,27.60
2018-05-25T10:52:35.107Z,25.40
2018-05-25T10:53:42.051Z,25.10
2018-05-25T10:54:48.863Z,25.20
2018-05-25T10:55:59.035Z,24.80
2018-05-25T10:57:02.803Z,26.80
2018-05-25T10:58:09.632Z,27.10
2018-05-25T10:59:16.504Z,27.60
2018-05-25T11:00:23.475Z,24.70
2018-05-25T11:01:30.296Z,25.40
2018-05-25T11:02:37.154Z,26.30
2018-05-25T11:03:44.344Z,25.60
2018-05-25T11:04:50.733Z,26.40
2018-05-25T11:05:57.675Z,24.90
2018-05-25T11:07:04.729Z,25.60
2018-05-25T11:08:11.635Z,24.80
2018-05-25T11:09:18.659Z,25.20
2018-05-25T11:10:25.528Z,25.80
2018-05-25T11:11:32.464Z,25.60
2018-05-25T11:12:39.477Z,24.70
2018-05-25T11:13:46.551Z,23.60
2018-05-25T11:14:53.296Z,22.00
2018-05-25T11:16:00.423Z,22.90
2018-05-25T11:17:07.342Z,23.90
2018-05-25T11:18:14.175Z,20.90
2018-05-25T11:19:21.047Z,20.10
2018-05-25T11:20:28.015Z,19.70
2018-05-25T11:21:34.956Z,20.10
2018-05-25T11:22:41.872Z,19.10
2018-05-25T11:23:48.722Z,17.70
2018-05-25T11:24:55.683Z,17.20
2018-05-25T11:26:02.550Z,16.80
2018-05-25T11:27:09.488Z,17.80
2018-05-25T11:28:16.486Z,16.00
2018-05-25T11:29:23.403Z,15.00
2018-05-25T11:30:30.440Z,13.50
2018-05-25T11:31:37.396Z,11.40
2018-05-25T11:32:44.356Z,12.50
2018-05-25T11:33:51.235Z,12.50
2018-05-25T11:34:58.310Z,13.40
2018-05-25T11:36:05.139Z,12.20
2018-05-25T11:37:12.028Z,9.70
2018-05-25T11:38:18.875Z,9.90
2018-05-25T11:39:25.864Z,12.00
2018-05-25T11:40:32.775Z,10.50
2018-05-25T11:41:41.684Z,8.80
2018-05-25T11:42:46.609Z,7.10
2018-05-25T11:43:53.445Z,7.90
2018-05-25T11:45:00.210Z,7.90
2018-05-25T11:46:07.134Z,8.40
2018-05-25T11:47:14.122Z,7.50
2018-05-25T11:48:21.048Z,7.10
2018-05-25T11:49:27.561Z,8.20
2018-05-25T11:50:34.572Z,7.20
2018-05-25T11:51:41.500Z,6.80
2018-05-25T11:52:48.514Z,8.10
2018-05-25T11:53:55.275Z,7.00
2018-05-25T11:55:02.151Z,6.10
2018-05-25T11:56:09.194Z,7.10
2018-05-25T11:57:16.119Z,6.90
2018-05-25T11:58:23.203Z,6.30
2018-05-25T11:59:30.028Z,6.90
2018-05-25T12:00:37.118Z,6.90
2018-05-25T12:01:44.035Z,7.30
2018-05-25T12:02:50.712Z,6.80
2018-05-25T12:03:57.696Z,7.70
2018-05-25T12:05:04.622Z,7.90
2018-05-25T12:06:11.561Z,7.40
2018-05-25T12:07:19.410Z,8.20
2018-05-25T12:08:25.318Z,8.00
2018-05-25T12:09:32.183Z,7.80
2018-05-25T12:10:38.986Z,7.20
2018-05-25T12:11:46.110Z,6.80
2018-05-25T12:12:52.658Z,6.80
2018-05-25T12:13:59.523Z,7.80
2018-05-25T12:15:06.440Z,7.30
2018-05-25T12:16:13.292Z,7.90
2018-05-25T12:17:20.127Z,9.60
2018-05-25T12:18:26.954Z,8.40
2018-05-25T12:19:33.917Z,6.10
2018-05-25T12:20:40.916Z,5.60
2018-05-25T12:21:47.904Z,6.70
2018-05-25T12:22:54.876Z,5.60
2018-05-25T12:24:01.810Z,5.10
2018-05-25T12:25:08.656Z,5.40
2018-05-25T12:26:15.546Z,6.60
2018-05-25T12:27:22.594Z,5.90
2018-05-25T12:28:29.527Z,6.90
2018-05-25T12:29:36.330Z,6.50
2018-05-25T12:30:43.142Z,7.80
2018-05-25T12:31:49.989Z,8.30
2018-05-25T12:32:56.798Z,6.70
2018-05-25T12:34:03.717Z,5.50
2018-05-25T12:35:10.518Z,5.40
2018-05-25T12:36:17.338Z,4.80
2018-05-25T12:37:24.145Z,5.80
2018-05-25T12:38:32.097Z,5.20
2018-05-25T12:39:38.034Z,5.40
2018-05-25T12:40:44.879Z,5.50
2018-05-25T12:41:51.775Z,5.50
2018-05-25T12:42:58.620Z,5.70
2018-05-25T12:44:05.522Z,5.30
2018-05-25T12:45:12.339Z,5.50
2018-05-25T12:46:19.402Z,5.30
2018-05-25T12:47:31.660Z,5.30
2018-05-25T12:48:33.296Z,5.70
2018-05-25T12:49:40.189Z,5.20
2018-05-25T12:50:47.054Z,5.60
2018-05-25T12:51:53.826Z,5.10
2018-05-25T12:53:00.615Z,4.80
2018-05-25T12:54:07.486Z,4.50
2018-05-25T12:55:14.281Z,5.80
2018-05-25T12:56:21.062Z,6.30
2018-05-25T12:57:27.927Z,7.10
2018-05-25T12:58:34.749Z,6.50
2018-05-25T12:59:41.725Z,7.00
2018-05-25T13:00:48.522Z,6.60
2018-05-25T13:01:55.592Z,7.20
2018-05-25T13:03:02.430Z,7.00
2018-05-25T13:04:09.295Z,7.00
2018-05-25T13:05:16.155Z,7.60
2018-05-25T13:06:23.171Z,7.60
2018-05-25T13:07:30.038Z,6.20
2018-05-25T13:08:36.905Z,6.20
2018-05-25T13:09:43.797Z,6.20
2018-05-25T13:10:50.576Z,6.40
2018-05-25T13:11:57.600Z,5.90
2018-05-25T13:13:04.431Z,6.20
2018-05-25T13:14:11.389Z,6.80
2018-05-25T13:15:18.237Z,6.80
2018-05-25T13:16:25.087Z,6.00
2018-05-25T13:17:32.064Z,6.10
2018-05-25T13:18:39.092Z,5.90
2018-05-25T13:19:45.919Z,5.00
2018-05-25T13:20:52.703Z,5.60
2018-05-25T13:21:59.634Z,6.20
2018-05-25T13:23:06.406Z,6.50
2018-05-25T13:24:13.409Z,6.80
2018-05-25T13:25:20.668Z,7.00
2018-05-25T13:26:27.155Z,6.80
2018-05-25T13:27:34.157Z,6.30
2018-05-25T13:28:40.938Z,6.40
2018-05-25T13:29:47.799Z,5.90
2018-05-25T13:30:54.626Z,5.60
2018-05-25T13:32:01.427Z,5.80
2018-05-25T13:33:08.202Z,5.60
2018-05-25T13:34:15.059Z,6.20
2018-05-25T13:35:22.020Z,5.70
2018-05-25T13:36:28.811Z,5.30
2018-05-25T13:37:35.630Z,6.30
2018-05-25T13:38:42.504Z,5.90
2018-05-25T13:39:49.334Z,6.00
2018-05-25T13:40:56.120Z,5.80
2018-05-25T13:42:02.986Z,6.30
2018-05-25T13:43:09.790Z,5.40
2018-05-25T13:44:16.676Z,6.10
2018-05-25T13:45:23.490Z,5.20
2018-05-25T13:46:30.522Z,5.70
2018-05-25T13:47:37.513Z,5.80
2018-05-25T13:48:44.416Z,5.20
2018-05-25T13:49:51.296Z,6.10
2018-05-25T13:50:58.175Z,5.50
2018-05-25T13:52:05.076Z,5.60
2018-05-25T13:53:11.971Z,5.40
2018-05-25T13:54:18.848Z,5.20
2018-05-25T13:55:25.675Z,5.10
2018-05-25T13:56:32.553Z,5.10
2018-05-25T13:57:39.454Z,4.50
2018-05-25T13:58:46.309Z,6.20
2018-05-25T13:59:53.155Z,5.20
2018-05-25T14:01:00.067Z,5.60
2018-05-25T14:02:07.221Z,5.40
2018-05-25T14:03:13.782Z,5.90
2018-05-25T14:04:20.647Z,4.90
2018-05-25T14:05:27.575Z,4.70
2018-05-25T14:06:34.413Z,5.20
2018-05-25T14:07:41.283Z,4.90
2018-05-25T14:08:48.270Z,5.60
2018-05-25T14:09:55.095Z,5.80
2018-05-25T14:11:02.007Z,5.30
2018-05-25T14:12:08.859Z,4.80
2018-05-25T14:13:15.730Z,5.40
2018-05-25T14:14:22.630Z,5.20
2018-05-25T14:15:29.498Z,5.10
2018-05-25T14:16:36.317Z,5.30
2018-05-25T14:17:43.235Z,4.80
2018-05-25T14:18:50.087Z,4.80
2018-05-25T14:19:56.935Z,4.80
2018-05-25T14:21:03.915Z,5.20
2018-05-25T14:22:10.942Z,5.10
2018-05-25T14:23:17.846Z,5.30
2018-05-25T14:24:24.641Z,4.90
2018-05-25T14:25:31.442Z,4.60
2018-05-25T14:26:38.247Z,4.50
2018-05-25T14:27:45.051Z,5.70
2018-05-25T14:28:51.782Z,4.90
2018-05-25T14:29:58.714Z,5.20
2018-05-25T14:31:05.507Z,5.80
2018-05-25T14:32:12.290Z,5.40
2018-05-25T14:33:19.109Z,5.20
2018-05-25T14:34:26.023Z,5.50
2018-05-25T14:35:33.014Z,4.70
2018-05-25T14:36:39.779Z,5.10